Time;durP1;ratioP1;P1;durP2;ratioP2;P2;SDS_P1;SDS_P2;PMS_P1;PMS_P2;Temp;Humidity;BMP_temperature;BMP_pressure;BME280_temperature;BME280_humidity;BME280_pressure;Samples;Min_cycle;Max_cycle;Signal;HPM_P1;HPM_P2
2023/01/31 01:55:39;;;;;;;62.00;34.50;;;;;;;-1.42;100.00;98547.74;102249;1298;616084;-70
2023/01/31 01:58:12;;;;;;;62.00;37.80;;;;;;;-1.42;100.00;98547.38;104664;1275;61648;-67
2023/01/31 02:00:41;;;;;;;56.70;37.20;;;;;;;-1.37;100.00;98542.20;104581;1270;61910;-64
2023/01/31 02:03:08;;;;;;;52.80;33.10;;;;;;;-1.30;100.00;98544.14;104412;1270;73139;-65
2023/01/31 02:05:43;;;;;;;45.40;29.70;;;;;;;-1.21;100.00;98546.14;104407;1276;67657;-68
2023/01/31 02:08:11;;;;;;;43.70;28.70;;;;;;;-1.11;100.00;98549.17;104050;1270;559373;-68
2023/01/31 02:10:50;;;;;;;40.80;27.70;;;;;;;-1.01;100.00;98548.37;104734;1273;61731;-70
2023/01/31 02:13:17;;;;;;;36.80;25.80;;;;;;;-0.87;100.00;98549.94;105365;1260;60679;-69
2023/01/31 02:15:44;;;;;;;38.10;24.90;;;;;;;-0.73;100.00;98547.61;105031;1265;73070;-68
2023/01/31 02:18:11;;;;;;;36.00;24.50;;;;;;;-0.63;100.00;98546.20;105094;1261;68706;-67
2023/01/31 02:21:09;;;;;;;42.20;27.00;;;;;;;-0.61;100.00;98547.25;105159;1260;74156;-68
2023/01/31 02:23:38;;;;;;;44.10;28.90;;;;;;;-0.61;100.00;98543.20;104965;1260;60744;-70
2023/01/31 02:26:26;;;;;;;49.10;27.40;;;;;;;-0.59;100.00;98541.74;105676;1260;61310;-70
2023/01/31 02:29:16;;;;;;;37.70;23.80;;;;;;;-0.58;100.00;98541.29;104870;1260;72901;-70
2023/01/31 02:32:22;;;;;;;36.10;24.20;;;;;;;-0.56;100.00;98546.19;105433;1267;67907;-70
2023/01/31 02:35:27;;;;;;;40.00;25.30;;;;;;;-0.48;100.00;98548.73;105436;1262;73369;-70
2023/01/31 02:38:26;;;;;;;31.60;21.00;;;;;;;-0.43;100.00;98548.03;105484;1261;60324;-69
2023/01/31 02:40:54;;;;;;;37.80;24.50;;;;;;;-0.41;100.00;98548.84;105148;1260;61065;-71
2023/01/31 02:43:32;;;;;;;38.50;25.80;;;;;;;-0.38;100.00;98552.48;105380;1262;72893;-68
2023/01/31 02:46:06;;;;;;;36.30;24.60;;;;;;;-0.34;100.00;98553.16;105145;1262;68903;-70
2023/01/31 02:48:52;;;;;;;35.90;25.20;;;;;;;-0.32;100.00;98554.45;105348;1262;73379;-77
2023/01/31 02:51:25;;;;;;;36.60;22.90;;;;;;;-0.24;100.00;98551.02;105498;1265;60145;-70
2023/01/31 02:54:14;;;;;;;33.50;24.60;;;;;;;-0.17;100.00;98549.49;105418;1264;61272;-72
2023/01/31 02:56:42;;;;;;;31.90;22.20;;;;;;;-0.11;100.00;98551.71;105304;1262;74540;-76
2023/01/31 02:59:20;;;;;;;37.60;23.30;;;;;;;-0.10;100.00;98554.23;105380;1265;69087;-73
2023/01/31 03:01:54;;;;;;;38.50;24.60;;;;;;;-0.11;100.00;98553.70;105178;1262;73157;-75
2023/01/31 03:04:21;;;;;;;35.40;25.70;;;;;;;-0.11;100.00;98554.07;105358;1264;61625;-75
2023/01/31 03:06:58;;;;;;;33.90;23.10;;;;;;;-0.09;100.00;98553.53;105255;1264;59772;-73
2023/01/31 03:09:45;;;;;;;35.50;24.10;;;;;;;-0.03;100.00;98554.73;105477;1265;74709;-76
2023/01/31 03:12:20;;;;;;;41.10;24.90;;;;;;;0.03;100.00;98556.36;105466;1262;69649;-79
2023/01/31 03:18:25;;;;;;;35.40;23.20;;;;;;;0.11;100.00;98553.80;104868;1268;59701;-75
2023/01/31 03:21:13;;;;;;;32.30;22.90;;;;;;;0.11;100.00;98553.85;105490;1262;59656;-76
2023/01/31 03:23:40;;;;;;;35.10;25.40;;;;;;;0.04;100.00;98559.09;105327;1263;72992;-78
2023/01/31 03:26:07;;;;;;;31.40;22.20;;;;;;;0.03;100.00;98561.16;105225;1262;68146;-77
2023/01/31 03:28:39;;;;;;;35.50;23.80;;;;;;;0.07;100.00;98563.95;105217;1262;72329;-75
2023/01/31 03:31:18;;;;;;;32.40;24.10;;;;;;;0.12;100.00;98563.69;105204;1262;59834;-76
2023/01/31 03:33:47;;;;;;;33.50;23.50;;;;;;;0.17;100.00;98559.15;105315;1262;59907;-75
2023/01/31 03:36:36;;;;;;;34.50;24.80;;;;;;;0.21;100.00;98556.48;105471;1258;73554;-76
2023/01/31 03:39:34;;;;;;;36.40;24.00;;;;;;;0.21;100.00;98558.06;104757;1258;1003097;-76
2023/01/31 03:42:12;;;;;;;32.90;24.90;;;;;;;0.19;100.00;98558.64;105554;1257;73403;-75
2023/01/31 03:44:49;;;;;;;36.40;23.00;;;;;;;0.16;100.00;98555.93;106856;1257;61258;-77
2023/01/31 03:47:22;;;;;;;37.40;26.20;;;;;;;0.14;100.00;98560.27;106649;1258;61982;-73
2023/01/31 03:49:50;;;;;;;35.80;23.50;;;;;;;0.13;100.00;98559.29;105672;1258;71940;-75
2023/01/31 03:52:22;;;;;;;32.50;23.50;;;;;;;0.17;100.00;98565.25;105561;1259;67358;-75
2023/01/31 03:54:53;;;;;;;32.90;22.10;;;;;;;0.22;100.00;98565.30;105712;1259;74368;-74
2023/01/31 03:57:23;;;;;;;37.20;26.60;;;;;;;0.30;100.00;98566.89;108225;1257;60627;-79
2023/01/31 03:59:53;;;;;;;35.70;24.40;;;;;;;0.33;100.00;98568.76;108935;1257;59933;-78
2023/01/31 04:02:24;;;;;;;32.40;22.80;;;;;;;0.33;100.00;98572.41;108751;1257;72626;-79
2023/01/31 04:04:55;;;;;;;32.40;21.70;;;;;;;0.33;100.00;98575.84;108855;1257;67650;-81
2023/01/31 04:07:22;;;;;;;32.20;22.30;;;;;;;0.31;100.00;98578.39;108730;1257;72293;-77
2023/01/31 04:09:51;;;;;;;34.10;24.50;;;;;;;0.27;100.00;98582.27;108585;1257;59925;-80
2023/01/31 04:12:18;;;;;;;33.40;23.20;;;;;;;0.23;100.00;98582.42;108756;1257;60667;-75
2023/01/31 04:14:48;;;;;;;33.20;22.30;;;;;;;0.23;100.00;98584.58;106119;1261;73997;-74
2023/01/31 04:17:15;;;;;;;31.70;21.60;;;;;;;0.28;100.00;98585.92;105722;1257;67797;-77
2023/01/31 04:19:43;;;;;;;29.50;21.30;;;;;;;0.34;100.00;98585.86;105709;1257;74374;-74
2023/01/31 04:22:09;;;;;;;35.00;25.20;;;;;;;0.35;100.00;98589.60;105642;1257;60361;-74
2023/01/31 04:24:36;;;;;;;32.70;25.90;;;;;;;0.35;100.00;98597.33;105687;1260;60009;-75
2023/01/31 04:27:03;;;;;;;39.00;25.70;;;;;;;0.33;100.00;98592.41;105667;1261;74618;-74
2023/01/31 04:29:30;;;;;;;31.40;23.20;;;;;;;0.33;100.00;98594.14;105485;1257;68677;-74
2023/01/31 04:31:57;;;;;;;28.70;20.40;;;;;;;0.38;100.00;98599.48;105657;1259;72563;-77
2023/01/31 04:34:24;;;;;;;32.90;22.80;;;;;;;0.41;100.00;98597.95;105781;1261;60325;-77
2023/01/31 04:36:51;;;;;;;32.40;23.60;;;;;;;0.47;100.00;98599.75;105611;1257;60378;-75
2023/01/31 04:39:18;;;;;;;35.30;24.60;;;;;;;0.50;100.00;98601.16;105418;1257;72667;-76
2023/01/31 04:41:45;;;;;;;33.30;24.00;;;;;;;0.50;100.00;98601.28;105719;1257;67569;-74
2023/01/31 04:44:12;;;;;;;35.40;23.60;;;;;;;0.49;100.00;98602.27;105619;1257;73019;-74
2023/01/31 04:46:39;;;;;;;35.80;24.00;;;;;;;0.47;100.00;98606.96;105694;1258;61460;-73
2023/01/31 04:49:05;;;;;;;41.60;28.60;;;;;;;0.44;100.00;98605.91;105410;1257;59921;-74
2023/01/31 04:51:33;;;;;;;33.40;23.80;;;;;;;0.44;100.00;98601.92;105543;1258;73950;-74
2023/01/31 04:54:01;;;;;;;35.40;26.70;;;;;;;0.47;100.00;98605.63;105547;1261;68374;-74
2023/01/31 04:56:28;;;;;;;34.40;24.80;;;;;;;0.50;100.00;98612.15;105452;1257;72342;-71
2023/01/31 04:58:55;;;;;;;43.40;24.70;;;;;;;0.53;100.00;98615.83;105717;1260;59907;-72
2023/01/31 05:01:23;;;;;;;34.40;24.60;;;;;;;0.58;100.00;98621.45;105592;1259;60066;-75
2023/01/31 05:03:50;;;;;;;40.50;24.60;;;;;;;0.57;100.00;98623.60;105726;1261;73155;-74
2023/01/31 05:06:17;;;;;;;36.30;25.70;;;;;;;0.53;100.00;98628.21;105580;1257;67455;-75
2023/01/31 05:08:44;;;;;;;44.90;28.40;;;;;;;0.50;100.00;98630.74;105540;1257;71985;-73
2023/01/31 05:11:14;;;;;;;39.80;27.90;;;;;;;0.50;100.00;98625.94;105714;1257;62706;-72
2023/01/31 05:13:41;;;;;;;41.10;27.50;;;;;;;0.50;100.00;98626.88;105652;1257;61861;-72
2023/01/31 05:16:10;;;;;;;37.10;26.20;;;;;;;0.50;100.00;98621.63;105679;1258;72977;-72
2023/01/31 05:18:37;;;;;;;39.00;27.30;;;;;;;0.53;100.00;98628.69;105697;1260;68171;-74
2023/01/31 05:21:05;;;;;;;37.20;26.70;;;;;;;0.54;100.00;98633.57;105483;1259;73425;-75
2023/01/31 05:23:34;;;;;;;38.90;26.50;;;;;;;0.58;100.00;98631.23;105553;1261;60076;-71
2023/01/31 05:26:01;;;;;;;37.30;25.30;;;;;;;0.62;100.00;98630.85;105401;1261;60957;-73
2023/01/31 05:28:28;;;;;;;39.50;28.10;;;;;;;0.63;100.00;98633.48;105426;1258;74260;-72
2023/01/31 05:31:01;;;;;;;36.70;27.20;;;;;;;0.62;100.00;98637.84;105375;1263;70050;-72
2023/01/31 05:33:30;;;;;;;;;;;;;;;0.60;100.00;98638.83;105650;1257;72502;-73
2023/01/31 05:35:58;;;;;;;35.50;25.20;;;;;;;0.58;100.00;98633.34;105689;1257;62400;-71
2023/01/31 05:38:26;;;;;;;39.20;28.70;;;;;;;0.59;100.00;98634.88;105765;1257;59593;-72
2023/01/31 05:40:56;;;;;;;37.20;25.10;;;;;;;0.62;100.00;98638.45;105698;1261;74293;-72
2023/01/31 05:43:23;;;;;;;30.20;22.30;;;;;;;0.66;100.00;98643.16;105727;1261;68211;-75
2023/01/31 05:45:50;;;;;;;33.30;25.60;;;;;;;0.67;100.00;98645.42;105689;1257;71464;-72
2023/01/31 05:48:16;;;;;;;36.10;23.60;;;;;;;0.69;100.00;98644.92;105480;1259;59652;-74
2023/01/31 05:50:43;;;;;;;36.70;26.00;;;;;;;0.73;100.00;98650.86;105755;1261;59645;-79
2023/01/31 05:53:10;;;;;;;40.30;26.00;;;;;;;0.74;100.00;98653.98;105663;1261;73963;-72
2023/01/31 05:55:37;;;;;;;36.10;25.40;;;;;;;0.73;100.00;98658.91;105420;1257;68001;-76
2023/01/31 05:58:04;;;;;;;32.50;23.70;;;;;;;0.71;100.00;98661.16;105455;1258;72879;-75
2023/01/31 06:00:31;;;;;;;34.50;26.80;;;;;;;0.67;100.00;98666.76;105641;1261;60902;-72
2023/01/31 06:02:58;;;;;;;41.80;28.60;;;;;;;0.66;100.00;98666.45;105540;1257;60604;-75
2023/01/31 06:05:26;;;;;;;32.10;23.90;;;;;;;0.68;100.00;98673.96;105463;1261;72717;-75
2023/01/31 06:07:53;;;;;;;33.90;23.70;;;;;;;0.71;100.00;98678.66;105740;1258;67719;-74
2023/01/31 06:10:21;;;;;;;37.70;25.20;;;;;;;0.74;100.00;98679.58;105378;1258;74650;-73
2023/01/31 06:12:48;;;;;;;33.40;24.60;;;;;;;0.71;100.00;98683.19;105443;1257;60476;-73
2023/01/31 06:15:15;;;;;;;44.70;29.70;;;;;;;0.66;100.00;98679.42;105617;1257;60979;-74
2023/01/31 06:17:43;;;;;;;40.30;28.20;;;;;;;0.63;100.00;98680.94;105700;1261;75375;-74
2023/01/31 06:20:12;;;;;;;41.20;26.50;;;;;;;0.63;100.00;98681.67;105700;1257;67469;-72
2023/01/31 06:22:40;;;;;;;34.80;26.60;;;;;;;0.63;100.00;98675.98;105504;1257;72361;-74
2023/01/31 06:25:07;;;;;;;30.50;21.50;;;;;;;0.68;100.00;98679.81;105771;1257;60377;-75
2023/01/31 06:27:35;;;;;;;34.30;22.30;;;;;;;0.75;100.00;98679.20;105700;1259;60838;-76
2023/01/31 06:30:02;;;;;;;38.80;27.20;;;;;;;0.77;100.00;98676.88;105473;1259;75391;-77
2023/01/31 06:32:29;;;;;;;33.10;24.10;;;;;;;0.80;100.00;98677.84;105416;1257;67568;-77
2023/01/31 06:34:56;;;;;;;44.60;28.70;;;;;;;0.83;100.00;98678.31;105323;1259;73635;-75
2023/01/31 06:37:23;;;;;;;41.50;29.90;;;;;;;0.82;100.00;98676.85;105583;1258;61416;-73
2023/01/31 06:39:50;;;;;;;39.20;26.60;;;;;;;0.83;100.00;98678.08;105490;1259;60480;-75
2023/01/31 06:42:17;;;;;;;46.60;28.70;;;;;;;0.86;100.00;98684.23;105485;1264;74559;-74
2023/01/31 06:44:45;;;;;;;38.20;26.50;;;;;;;0.92;100.00;98685.55;105541;1258;68662;-76
2023/01/31 06:47:13;;;;;;;35.60;23.90;;;;;;;0.98;100.00;98693.02;105491;1257;72834;-77
2023/01/31 06:49:40;;;;;;;34.70;25.30;;;;;;;1.02;100.00;98695.47;105480;1259;60408;-76
2023/01/31 06:52:08;;;;;;;34.30;27.00;;;;;;;1.03;100.00;98696.31;105744;1257;61317;-76
2023/01/31 06:54:35;;;;;;;41.90;29.90;;;;;;;1.03;100.00;98701.41;105431;1259;74682;-75
2023/01/31 06:57:02;;;;;;;41.70;29.80;;;;;;;1.01;100.00;98703.95;105422;1257;68833;-77
2023/01/31 06:59:32;;;;;;;42.90;27.30;;;;;;;0.95;100.00;98708.01;105433;1257;73025;-76
2023/01/31 07:01:59;;;;;;;36.00;24.70;;;;;;;0.94;100.00;98703.42;105551;1258;62816;-73
2023/01/31 07:04:26;;;;;;;36.40;23.70;;;;;;;0.99;100.00;98709.78;105529;1258;60782;-74
2023/01/31 07:06:53;;;;;;;36.50;27.30;;;;;;;1.04;100.00;98709.92;105451;1264;75494;-74
2023/01/31 07:09:20;;;;;;;42.50;29.80;;;;;;;1.09;100.00;98713.32;105706;1257;70249;-72
2023/01/31 07:11:46;;;;;;;37.20;26.00;;;;;;;1.11;100.00;98712.70;105470;1259;72504;-75
2023/01/31 07:14:20;;;;;;;41.20;26.40;;;;;;;1.14;100.00;98713.86;105507;1257;60474;-75
2023/01/31 07:16:47;;;;;;;39.50;28.90;;;;;;;1.14;100.00;98714.19;105450;1258;61334;-73
2023/01/31 07:19:14;;;;;;;40.80;25.70;;;;;;;1.14;100.00;98718.59;105508;1257;72871;-72
2023/01/31 07:21:43;;;;;;;40.50;26.00;;;;;;;1.14;100.00;98721.52;105644;1257;68940;-72
2023/01/31 07:24:10;;;;;;;31.60;24.30;;;;;;;1.13;100.00;98722.77;105613;1259;72770;-73
2023/01/31 07:26:37;;;;;;;37.00;28.40;;;;;;;1.14;100.00;98722.29;105707;1258;62539;-76
2023/01/31 07:29:04;;;;;;;38.80;26.50;;;;;;;1.16;100.00;98723.28;105481;1264;60480;-75
2023/01/31 07:31:31;;;;;;;36.50;25.70;;;;;;;1.22;100.00;98724.67;105454;1257;75566;-76
2023/01/31 07:33:59;;;;;;;39.10;25.00;;;;;;;1.28;100.00;98727.61;105544;1261;69573;-71
2023/01/31 07:36:25;;;;;;;33.00;23.80;;;;;;;1.29;100.00;98730.43;105657;1257;72261;-74
2023/01/31 07:38:54;;;;;;;31.80;23.50;;;;;;;1.29;100.00;98730.46;105431;1258;60468;-75
2023/01/31 07:41:22;;;;;;;39.10;25.00;;;;;;;1.27;100.00;98732.31;105575;1258;61047;-75
2023/01/31 07:43:50;;;;;;;34.90;27.00;;;;;;;1.26;100.00;98736.79;105442;1258;74311;-75
2023/01/31 07:46:19;;;;;;;31.90;24.30;;;;;;;1.26;100.00;98741.15;105461;1264;68716;-76
2023/01/31 07:48:46;;;;;;;37.10;28.20;;;;;;;1.25;100.00;98734.55;105409;1257;73426;-76
2023/01/31 07:51:12;;;;;;;36.30;25.40;;;;;;;1.28;100.00;98739.14;105392;1262;60662;-80
2023/01/31 07:53:42;;;;;;;43.10;29.50;;;;;;;1.33;100.00;98743.92;105279;1259;60916;-76
2023/01/31 07:56:14;;;;;;;37.70;25.30;;;;;;;1.35;100.00;98744.75;105518;1258;72367;-79
2023/01/31 07:58:42;;;;;;;41.40;28.80;;;;;;;1.33;100.00;98744.26;105604;1258;68597;-79
2023/01/31 11:43:24;;;;;;;70.20;43.60;;;;;;;1.89;100.00;98769.28;102741;1297;615338;-71
2023/01/31 11:45:58;;;;;;;69.60;47.60;;;;;;;1.90;100.00;98773.80;104939;1269;61009;-70
2023/01/31 11:48:42;;;;;;;64.50;44.30;;;;;;;1.94;100.00;98775.43;104977;1273;60989;-72
2023/01/31 11:51:26;;;;;;;52.80;40.10;;;;;;;2.02;100.00;98772.75;105137;1274;72940;-78
2023/01/31 11:53:52;;;;;;;45.50;33.10;;;;;;;2.15;100.00;98779.53;105031;1274;67466;-80
2023/01/31 11:56:30;;;;;;;41.50;29.40;;;;;;;2.28;100.00;98782.96;104516;1273;608757;-82
2023/01/31 11:59:01;;;;;;;42.30;29.70;;;;;;;2.39;100.00;98784.23;105282;1266;59616;-80
2023/01/31 12:01:29;;;;;;;39.80;29.80;;;;;;;2.47;100.00;98782.02;105539;1266;59713;-82
2023/01/31 12:04:03;;;;;;;42.60;30.10;;;;;;;2.53;100.00;98779.95;105932;1262;74095;-86
2023/01/31 12:06:37;;;;;;;42.20;30.60;;;;;;;2.56;100.00;98773.98;106759;1261;70566;-82
2023/01/31 12:09:17;;;;;;;37.80;28.70;;;;;;;2.58;100.00;98772.05;105937;1262;73189;-80
2023/01/31 12:11:51;;;;;;;;;;;;;;;2.61;100.00;98775.03;106013;1264;60847;-84
2023/01/31 12:14:23;;;;;;;38.00;24.40;;;;;;;2.66;100.00;98779.84;106121;1259;61574;-83
2023/01/31 12:16:53;;;;;;;35.70;26.10;;;;;;;2.70;100.00;98779.34;105956;1261;72597;-82
2023/01/31 12:19:45;;;;;;;41.60;28.90;;;;;;;2.77;100.00;98787.34;105836;1259;68235;-76
2023/01/31 12:22:20;;;;;;;36.30;27.90;;;;;;;2.83;100.00;98789.53;105687;1259;73110;-75
2023/01/31 12:24:55;;;;;;;29.60;23.60;;;;;;;2.91;100.00;98785.19;105610;1259;60806;-75
2023/01/31 12:28:00;;;;;;;46.00;31.80;;;;;;;2.91;100.00;98785.19;105503;1258;60100;-73
2023/01/31 12:30:51;;;;;;;41.60;30.30;;;;;;;2.88;100.00;98791.14;105487;1259;74426;-73
2023/01/31 12:33:38;;;;;;;42.40;30.00;;;;;;;2.90;100.00;98792.91;105437;1262;69510;-74
2023/01/31 12:36:14;;;;;;;35.50;25.60;;;;;;;2.95;100.00;98791.27;105545;1262;74436;-73
2023/01/31 12:39:12;;;;;;;41.50;28.10;;;;;;;3.02;100.00;98793.30;105740;1259;60808;-75
2023/01/31 12:41:45;;;;;;;37.00;26.00;;;;;;;3.05;100.00;98795.76;105470;1262;59698;-70
2023/01/31 12:44:23;;;;;;;36.90;28.10;;;;;;;3.05;100.00;98796.75;105393;1264;73093;-71
2023/01/31 12:47:03;;;;;;;39.50;29.80;;;;;;;3.00;100.00;98795.66;105476;1263;67411;-71
2023/01/31 12:50:08;;;;;;;42.00;30.60;;;;;;;2.97;100.00;98794.83;105433;1264;74287;-72
2023/01/31 12:52:38;;;;;;;;;;;;;;;2.96;100.00;98797.63;105262;1267;61580;-70
2023/01/31 12:55:12;;;;;;;32.90;26.00;;;;;;;2.97;100.00;98798.31;105435;1262;62053;-77
2023/01/31 12:57:52;;;;;;;34.30;25.90;;;;;;;2.93;100.00;98794.71;105706;1265;74843;-75
2023/01/31 13:00:31;;;;;;;38.00;30.50;;;;;;;2.93;100.00;98795.01;105391;1263;66994;-76
2023/01/31 13:03:35;;;;;;;37.50;27.70;;;;;;;2.91;100.00;98801.61;105251;1262;71775;-69
2023/01/31 13:06:27;;;;;;;40.40;27.40;;;;;;;2.88;100.00;98797.91;105371;1265;60322;-81
2023/01/31 13:08:58;;;;;;;35.70;27.10;;;;;;;2.86;100.00;98796.70;105584;1267;60123;-81
2023/01/31 13:12:05;;;;;;;36.30;27.30;;;;;;;2.87;100.00;98793.84;105463;1265;73482;-80
2023/01/31 13:14:45;;;;;;;37.20;27.10;;;;;;;2.88;100.00;98801.56;105740;1261;69047;-81
2023/01/31 13:17:13;;;;;;;36.50;25.10;;;;;;;2.92;100.00;98804.66;105695;1262;73200;-66
2023/01/31 13:20:10;;;;;;;36.20;25.10;;;;;;;2.94;100.00;98805.73;105013;1264;60895;-72
2023/01/31 13:22:48;;;;;;;37.70;26.60;;;;;;;2.93;99.99;98807.55;105545;1262;59910;-71
2023/01/31 13:25:27;;;;;;;34.70;26.90;;;;;;;2.91;99.98;98814.73;105560;1261;74568;-76
2023/01/31 13:28:18;;;;;;;36.80;27.80;;;;;;;2.87;99.91;98815.67;105477;1263;69200;-70
2023/01/31 13:30:50;;;;;;;35.90;25.80;;;;;;;2.84;99.93;98814.30;104934;1265;73086;-72
2023/01/31 13:33:22;;;;;;;38.90;27.60;;;;;;;2.87;100.00;98814.08;105511;1264;59569;-70
2023/01/31 13:35:59;;;;;;;;;;;;;;;2.91;100.00;98817.00;105432;1263;60761;-74
2023/01/31 13:38:29;;;;;;;35.80;26.50;;;;;;;2.95;100.00;98819.77;105362;1264;74749;-71
2023/01/31 13:40:56;;;;;;;41.90;28.20;;;;;;;2.97;99.99;98820.05;106686;1259;69579;-70
2023/01/31 13:43:23;;;;;;;33.30;25.30;;;;;;;2.98;99.98;98819.29;105238;1259;73295;-71
2023/01/31 13:45:58;;;;;;;29.90;23.50;;;;;;;3.00;99.87;98820.34;105336;1264;61407;-67
2023/01/31 13:48:30;;;;;;;34.20;26.70;;;;;;;2.97;99.67;98823.19;105136;1264;59768;-71
2023/01/31 13:51:00;;;;;;;33.40;25.50;;;;;;;2.94;99.76;98821.99;105168;1265;73201;-78
2023/01/31 13:53:35;;;;;;;37.10;26.50;;;;;;;2.94;99.67;98823.30;105501;1267;67215;-71
2023/01/31 13:56:03;;;;;;;35.00;25.00;;;;;;;2.96;99.76;98825.83;105137;1266;73020;-65
2023/01/31 13:58:32;;;;;;;30.90;23.10;;;;;;;3.00;99.79;98824.86;105008;1259;61401;-68
2023/01/31 14:01:23;;;;;;;35.60;26.80;;;;;;;3.04;99.46;98826.50;105119;1259;61987;-65
2023/01/31 14:04:13;;;;;;;36.70;27.70;;;;;;;3.04;99.20;98823.76;105146;1261;73093;-66
2023/01/31 14:06:53;;;;;;;35.60;25.90;;;;;;;3.05;98.90;98821.47;105122;1264;67996;-65
2023/01/31 14:09:35;;;;;;;30.60;24.40;;;;;;;3.04;98.51;98826.41;105105;1259;72793;-70
2023/01/31 14:12:08;;;;;;;31.40;23.90;;;;;;;3.03;98.48;98827.86;105659;1259;60387;-68
2023/01/31 14:14:46;;;;;;;36.10;26.10;;;;;;;2.99;98.29;98824.52;105129;1264;62132;-75
2023/01/31 14:17:12;;;;;;;28.80;23.30;;;;;;;2.95;98.32;98827.75;105438;1259;73619;-70
2023/01/31 14:19:43;;;;;;;31.70;24.80;;;;;;;2.97;98.44;98826.58;105607;1259;68862;-67
2023/01/31 14:22:19;;;;;;;36.40;26.20;;;;;;;3.00;98.53;98826.41;105362;1259;73443;-70
2023/01/31 14:24:45;;;;;;;34.00;27.60;;;;;;;3.09;98.69;98827.98;105124;1261;60721;-73
2023/01/31 14:27:19;;;;;;;31.90;24.60;;;;;;;3.16;98.26;98830.98;105512;1263;60202;-73
2023/01/31 14:30:07;;;;;;;33.90;26.40;;;;;;;3.16;97.92;98831.95;105584;1260;74516;-73
2023/01/31 14:32:43;;;;;;;37.90;26.70;;;;;;;3.12;97.48;98834.17;105461;1258;67709;-78
2023/01/31 14:35:21;;;;;;;36.50;27.40;;;;;;;3.01;97.13;98835.77;105362;1265;74020;-72
2023/01/31 14:38:01;;;;;;;33.50;25.80;;;;;;;2.97;97.43;98833.48;105420;1259;61193;-70
2023/01/31 14:40:59;;;;;;;31.30;24.50;;;;;;;2.99;97.72;98833.58;105083;1262;59675;-73
2023/01/31 14:43:44;;;;;;;32.50;24.80;;;;;;;3.05;97.71;98837.92;105159;1260;72058;-72
2023/01/31 14:46:28;;;;;;;37.10;27.90;;;;;;;3.11;97.69;98837.50;105175;1259;68805;-74
2023/01/31 14:49:14;;;;;;;;;;;;;;;3.15;97.54;98837.49;104987;1259;72584;-73
2023/01/31 14:52:04;;;;;;;33.10;23.70;;;;;;;3.14;97.32;98837.42;105569;1264;59630;-77
2023/01/31 14:55:09;;;;;;;47.80;31.20;;;;;;;3.08;97.23;98836.45;105700;1260;59782;-74
2023/01/31 14:57:46;;;;;;;37.50;29.70;;;;;;;3.06;97.14;98839.60;105784;1263;73194;-74
2023/01/31 15:00:13;;;;;;;37.50;29.00;;;;;;;3.08;97.25;98844.30;105883;1259;67438;-71
2023/01/31 15:02:43;;;;;;;38.00;28.30;;;;;;;3.13;97.29;98844.66;105644;1263;73484;-71
2023/01/31 15:05:18;;;;;;;39.30;28.10;;;;;;;3.18;97.18;98842.64;105442;1261;61064;-73
2023/01/31 15:08:06;;;;;;;42.50;30.50;;;;;;;3.22;97.04;98846.52;105521;1259;61309;-73
2023/01/31 15:10:52;;;;;;;40.80;29.80;;;;;;;3.22;96.63;98848.11;105947;1259;72759;-73
2023/01/31 15:13:33;;;;;;;40.80;28.10;;;;;;;3.17;96.57;98851.06;105622;1263;67036;-76
2023/01/31 15:16:05;;;;;;;40.70;29.10;;;;;;;3.13;96.54;98854.14;105504;1261;73437;-73
2023/01/31 15:18:33;;;;;;;43.00;30.30;;;;;;;3.10;96.66;98859.73;105551;1264;59684;-76
2023/01/31 15:21:02;;;;;;;40.60;30.50;;;;;;;3.08;96.65;98855.27;105388;1260;61665;-71
2023/01/31 15:23:30;;;;;;;40.20;27.80;;;;;;;3.07;96.74;98861.40;105570;1260;71908;-79
2023/01/31 15:25:58;;;;;;;41.80;29.30;;;;;;;3.10;96.96;98860.80;105645;1263;68650;-74
2023/01/31 15:28:27;;;;;;;41.60;30.20;;;;;;;3.15;97.09;98867.15;105939;1260;73704;-78
2023/01/31 15:30:56;;;;;;;40.80;29.10;;;;;;;3.22;97.09;98866.66;105492;1264;59590;-74
2023/01/31 15:33:40;;;;;;;36.70;27.50;;;;;;;3.26;97.00;98867.52;105168;1259;61143;-72
2023/01/31 15:36:14;;;;;;;31.50;25.20;;;;;;;3.29;96.74;98868.46;105166;1265;74425;-79
2023/01/31 15:38:47;;;;;;;43.20;28.90;;;;;;;3.26;96.53;98868.33;105857;1266;68766;-70
2023/01/31 15:41:23;;;;;;;52.90;35.90;;;;;;;3.23;96.53;98872.41;105450;1263;71296;-71
2023/01/31 15:43:55;;;;;;;40.90;30.40;;;;;;;3.21;96.58;98872.48;105415;1265;62787;-71
2023/01/31 15:46:30;;;;;;;48.00;34.10;;;;;;;3.18;96.51;98873.23;105529;1264;59694;-72
2023/01/31 15:48:58;;;;;;;43.30;31.10;;;;;;;3.16;96.56;98877.70;105529;1263;72649;-71
2023/01/31 15:51:25;;;;;;;52.20;35.70;;;;;;;3.17;96.76;98876.29;105477;1264;69223;-72
2023/01/31 15:54:04;;;;;;;56.40;37.00;;;;;;;3.22;96.92;98877.17;105513;1265;72571;-68
2023/01/31 19:40:50;;;;;;;31.70;22.20;;;;;;;1.48;100.00;98941.30;102191;1302;599635;-68
2023/01/31 19:43:20;;;;;;;28.60;18.90;;;;;;;1.46;100.00;98936.83;104556;1274;61993;-67
2023/01/31 19:45:48;;;;;;;28.20;21.90;;;;;;;1.48;100.00;98940.56;104427;1270;59847;-68
2023/01/31 19:48:16;;;;;;;30.90;20.60;;;;;;;1.53;100.00;98936.92;104496;1270;73296;-67
2023/01/31 19:50:46;;;;;;;27.70;20.10;;;;;;;1.59;100.00;98938.16;104457;1276;67840;-69
2023/01/31 19:53:14;;;;;;;26.70;19.40;;;;;;;1.67;100.00;98944.97;104092;1270;568628;-67
2023/01/31 19:55:42;;;;;;;21.90;14.90;;;;;;;1.74;100.00;98943.30;104628;1272;62634;-67
2023/01/31 19:58:11;;;;;;;21.50;16.60;;;;;;;1.84;100.00;98945.50;104577;1269;61325;-67
2023/01/31 20:00:39;;;;;;;17.80;14.30;;;;;;;1.90;100.00;98948.16;104603;1268;72014;-67
2023/01/31 20:03:07;;;;;;;18.60;15.10;;;;;;;1.97;100.00;98937.89;104662;1270;68917;-67
2023/01/31 20:05:37;;;;;;;20.90;14.20;;;;;;;2.01;100.00;98937.41;104704;1271;72249;-68
2023/01/31 20:08:06;;;;;;;18.10;16.20;;;;;;;2.06;100.00;98940.00;104742;1270;60115;-67
2023/01/31 20:10:34;;;;;;;16.50;14.50;;;;;;;2.09;100.00;98941.36;104596;1267;60908;-69
2023/01/31 20:13:03;;;;;;;20.60;15.80;;;;;;;2.10;100.00;98939.98;104596;1270;74539;-68
2023/01/31 20:15:32;;;;;;;22.70;15.90;;;;;;;2.09;100.00;98947.65;104669;1267;69795;-67
2023/01/31 20:18:00;;;;;;;20.60;15.10;;;;;;;2.07;100.00;98946.09;104674;1272;71330;-68
2023/01/31 20:20:29;;;;;;;21.90;14.50;;;;;;;2.07;100.00;98946.34;104745;1267;62054;-68
2023/01/31 20:22:58;;;;;;;16.30;13.30;;;;;;;2.07;100.00;98944.50;105152;1261;59993;-68
2023/01/31 20:25:26;;;;;;;16.70;13.10;;;;;;;2.10;100.00;98940.88;105256;1260;71785;-70
2023/01/31 20:27:55;;;;;;;18.90;13.20;;;;;;;2.11;100.00;98939.60;105035;1260;67936;-66
2023/01/31 20:30:23;;;;;;;19.10;12.70;;;;;;;2.11;100.00;98942.24;105335;1260;72902;-67
2023/01/31 20:32:51;;;;;;;20.80;16.30;;;;;;;2.11;100.00;98938.11;105256;1262;61930;-67
2023/01/31 20:35:19;;;;;;;19.20;14.70;;;;;;;2.13;100.00;98939.09;105372;1258;60406;-70
2023/01/31 20:37:48;;;;;;;17.60;13.70;;;;;;;2.22;100.00;98936.14;105232;1257;72762;-66
2023/01/31 20:40:16;;;;;;;20.30;14.40;;;;;;;2.30;100.00;98934.98;105390;1257;66648;-66
2023/01/31 20:42:45;;;;;;;24.90;14.80;;;;;;;2.38;100.00;98938.31;105379;1261;72381;-66
2023/01/31 20:45:13;;;;;;;16.20;12.30;;;;;;;2.44;100.00;98939.89;105335;1260;59557;-65
2023/01/31 20:47:42;;;;;;;15.40;12.50;;;;;;;2.44;100.00;98945.40;105431;1257;60997;-67
2023/01/31 20:50:10;;;;;;;21.30;14.30;;;;;;;2.38;100.00;98945.95;105428;1260;74143;-68
2023/01/31 20:52:39;;;;;;;17.10;13.20;;;;;;;2.35;100.00;98945.70;105432;1256;68840;-67
2023/01/31 20:55:08;;;;;;;19.60;14.20;;;;;;;2.34;100.00;98947.19;105253;1257;73548;-69
2023/01/31 20:57:36;;;;;;;18.20;13.90;;;;;;;2.33;100.00;98941.65;105507;1257;60535;-66
2023/01/31 21:00:05;;;;;;;18.20;14.30;;;;;;;2.36;100.00;98941.55;105420;1256;61184;-68
2023/01/31 21:02:34;;;;;;;18.90;13.90;;;;;;;2.39;100.00;98944.14;105816;1260;75197;-67